createdAt,value
2019-05-02T00:01:33.903Z,7.10
2019-05-02T00:04:20.106Z,7.10
2019-05-02T00:07:24.406Z,7.10
2019-05-02T00:10:33.256Z,7.10
2019-05-02T00:13:21.992Z,7.10
2019-05-02T00:16:14.175Z,7.00
2019-05-02T00:18:42.072Z,7.00
2019-05-02T00:21:32.882Z,7.00
2019-05-02T00:24:20.804Z,6.90
2019-05-02T00:27:09.426Z,6.90
2019-05-02T00:29:38.925Z,6.90
2019-05-02T00:32:27.489Z,7.00
2019-05-02T00:35:16.048Z,6.90
2019-05-02T00:38:04.763Z,6.90
2019-05-02T00:40:34.300Z,6.80
2019-05-02T00:43:22.809Z,6.80
2019-05-02T00:46:11.365Z,6.70
2019-05-02T00:51:34.431Z,6.70
2019-05-02T00:54:24.176Z,6.60
2019-05-02T00:57:14.991Z,6.60
2019-05-02T01:05:33.697Z,6.50
2019-05-02T01:08:22.185Z,6.50
2019-05-02T01:11:10.700Z,6.50
2019-05-02T01:13:40.202Z,6.50
2019-05-02T01:16:28.720Z,6.50
2019-05-02T01:19:17.300Z,6.50
2019-05-02T01:22:10.367Z,6.50
2019-05-02T01:24:39.614Z,6.40
2019-05-02T01:30:59.402Z,6.40
2019-05-02T01:33:36.911Z,6.30
2019-05-02T01:36:36.694Z,6.30
2019-05-02T01:39:23.022Z,6.30
2019-05-02T01:42:11.606Z,6.20
2019-05-02T01:45:00.158Z,6.10
2019-05-02T01:47:34.251Z,6.20
2019-05-02T01:50:00.772Z,6.10
2019-05-02T01:52:30.292Z,6.10
2019-05-02T01:55:21.252Z,6.10
2019-05-02T01:57:49.930Z,6.10
2019-05-02T02:00:40.890Z,6.10
2019-05-02T02:03:28.652Z,6.10
2019-05-02T02:06:10.166Z,6.10
2019-05-02T02:08:39.713Z,6.00
2019-05-02T02:11:33.458Z,6.00
2019-05-02T02:14:18.826Z,6.00
2019-05-02T02:16:49.540Z,5.90
2019-05-02T02:19:57.045Z,5.90
2019-05-02T02:26:12.021Z,5.70
2019-05-02T02:28:41.200Z,5.70
2019-05-02T02:31:29.816Z,5.70
2019-05-02T02:34:21.393Z,5.60
2019-05-02T02:37:12.994Z,5.60
2019-05-02T02:39:39.635Z,5.70
2019-05-02T02:42:31.869Z,5.60
2019-05-02T02:45:43.441Z,5.50
2019-05-02T02:51:27.273Z,5.50
2019-05-02T02:54:15.792Z,5.50
2019-05-02T02:56:45.322Z,5.50
2019-05-02T02:59:33.866Z,5.50
2019-05-02T03:02:22.404Z,5.50
2019-05-02T03:04:51.930Z,5.40
2019-05-02T03:07:40.468Z,5.40
2019-05-02T03:10:28.967Z,5.30
2019-05-02T03:13:21.805Z,5.20
2019-05-02T03:15:51.912Z,5.20
2019-05-02T03:18:21.394Z,5.10
2019-05-02T03:20:51.358Z,5.10
2019-05-02T03:23:22.120Z,5.10
2019-05-02T03:25:51.967Z,5.00
2019-05-02T03:28:21.454Z,5.00
2019-05-02T03:30:50.911Z,5.00
2019-05-02T03:33:20.412Z,5.00
2019-05-02T03:35:49.861Z,5.00
2019-05-02T03:38:31.037Z,5.00
2019-05-02T03:40:50.579Z,5.00
2019-05-02T03:43:25.487Z,5.00
2019-05-02T03:45:51.234Z,5.00
2019-05-02T03:48:25.568Z,5.00
2019-05-02T03:50:52.350Z,4.90
2019-05-02T03:53:25.331Z,4.90
2019-05-02T03:55:53.849Z,4.80
2019-05-02T03:58:23.754Z,4.80
2019-05-02T04:01:00.829Z,4.70
2019-05-02T04:03:24.341Z,4.80
2019-05-02T04:05:53.961Z,4.80
2019-05-02T04:08:24.205Z,4.80
2019-05-02T04:11:21.084Z,4.80
2019-05-02T04:13:55.802Z,4.80
2019-05-02T04:16:26.349Z,4.90
2019-05-02T04:19:06.523Z,4.90
2019-05-02T04:21:36.582Z,4.90
2019-05-02T04:24:15.051Z,4.90
2019-05-02T04:26:38.638Z,4.90
2019-05-02T04:29:08.122Z,4.90
2019-05-02T04:31:37.560Z,4.90
2019-05-02T04:34:13.597Z,5.00
2019-05-02T04:36:38.252Z,5.00
2019-05-02T04:39:15.571Z,5.10
2019-05-02T04:41:42.309Z,5.10
2019-05-02T04:44:10.059Z,5.20
2019-05-02T04:46:39.539Z,5.20
2019-05-02T04:49:09.380Z,5.30
2019-05-02T04:51:38.892Z,5.30
2019-05-02T04:54:09.186Z,5.40
2019-05-02T04:56:48.264Z,5.40
2019-05-02T04:59:17.902Z,5.40
2019-05-02T05:01:49.031Z,5.50
2019-05-02T05:04:12.280Z,5.60
2019-05-02T05:06:54.891Z,5.70
2019-05-02T05:09:14.728Z,5.90
2019-05-02T05:11:44.044Z,6.10
2019-05-02T05:14:13.512Z,6.10
2019-05-02T05:16:45.503Z,6.30
2019-05-02T05:19:14.132Z,6.30
2019-05-02T05:21:43.588Z,6.40
2019-05-02T05:24:32.945Z,6.40
2019-05-02T05:27:01.905Z,6.50
2019-05-02T05:29:31.395Z,6.60
2019-05-02T05:32:07.855Z,6.70
2019-05-02T05:34:32.765Z,6.80
2019-05-02T05:37:03.620Z,6.90
2019-05-02T05:39:33.469Z,7.10
2019-05-02T05:42:02.919Z,7.20
2019-05-02T05:44:32.819Z,7.20
2019-05-02T05:47:02.355Z,7.40
2019-05-02T05:49:31.819Z,7.50
2019-05-02T05:52:03.814Z,7.60
2019-05-02T05:54:33.043Z,7.60
2019-05-02T05:57:04.059Z,7.80
2019-05-02T05:59:33.516Z,7.90
2019-05-02T06:02:05.393Z,8.00
2019-05-02T06:04:34.116Z,8.20
2019-05-02T06:07:03.639Z,8.30
2019-05-02T06:09:33.134Z,8.40
2019-05-02T06:12:02.592Z,8.40
2019-05-02T06:14:34.501Z,8.60
2019-05-02T06:17:03.533Z,8.80
2019-05-02T06:19:33.672Z,8.90
2019-05-02T06:22:03.129Z,8.90
2019-05-02T06:24:33.991Z,9.00
2019-05-02T06:27:03.504Z,9.30
2019-05-02T06:29:32.993Z,9.40
2019-05-02T06:32:03.308Z,9.60
2019-05-02T06:34:32.772Z,9.70
2019-05-02T06:37:02.437Z,9.90
2019-05-02T06:39:32.234Z,10.10
2019-05-02T06:42:02.686Z,10.30
2019-05-02T06:44:32.155Z,10.40
2019-05-02T06:47:04.381Z,10.60
2019-05-02T06:49:32.949Z,10.70
2019-05-02T06:52:02.436Z,10.90
2019-05-02T06:54:31.908Z,11.10
2019-05-02T06:57:01.387Z,11.40
2019-05-02T06:59:30.878Z,11.70
2019-05-02T07:02:00.336Z,11.80
2019-05-02T07:04:29.845Z,12.00
2019-05-02T07:06:59.947Z,12.20
2019-05-02T07:09:40.393Z,12.30
2019-05-02T07:12:01.570Z,12.50
2019-05-02T07:14:31.485Z,12.60
2019-05-02T07:17:11.536Z,12.80
2019-05-02T07:19:44.417Z,13.10
2019-05-02T07:22:13.879Z,13.10
2019-05-02T07:24:43.337Z,13.20
2019-05-02T07:27:12.932Z,13.20
2019-05-02T07:29:42.390Z,13.40
2019-05-02T07:32:11.989Z,13.50
2019-05-02T07:34:44.256Z,13.70
2019-05-02T07:37:13.797Z,13.80
2019-05-02T07:39:44.638Z,14.00
2019-05-02T07:42:14.323Z,14.20
2019-05-02T07:44:43.775Z,14.50
2019-05-02T07:47:13.229Z,14.60
2019-05-02T07:49:42.716Z,14.50
2019-05-02T07:52:12.172Z,14.50
2019-05-02T07:54:41.662Z,14.40
2019-05-02T07:57:11.120Z,14.50
2019-05-02T07:59:40.608Z,14.70
2019-05-02T08:02:10.061Z,15.00
2019-05-02T08:04:43.528Z,15.20
2019-05-02T08:07:10.672Z,15.30
2019-05-02T08:09:44.078Z,15.50
2019-05-02T08:12:11.440Z,15.60
2019-05-02T08:14:40.900Z,15.70
2019-05-02T08:17:16.122Z,15.70
2019-05-02T08:19:43.022Z,15.80
2019-05-02T08:22:14.568Z,15.90
2019-05-02T08:24:43.868Z,15.80
2019-05-02T08:27:34.601Z,15.70
2019-05-02T08:30:04.385Z,15.80
2019-05-02T08:32:34.809Z,15.90
2019-05-02T08:35:04.580Z,15.90
2019-05-02T08:37:35.433Z,15.70
2019-05-02T08:40:10.497Z,15.90
2019-05-02T08:42:37.020Z,16.00
2019-05-02T08:45:07.230Z,16.10
2019-05-02T08:47:36.697Z,16.00
2019-05-02T08:50:07.753Z,16.10
2019-05-02T08:52:42.365Z,16.10
2019-05-02T08:55:09.826Z,16.20
2019-05-02T08:57:39.476Z,16.30
2019-05-02T09:00:10.694Z,16.40
2019-05-02T09:02:41.791Z,16.40
2019-05-02T09:05:11.342Z,16.50
2019-05-02T09:07:42.931Z,16.60
2019-05-02T09:10:12.674Z,16.70
2019-05-02T09:12:45.454Z,16.70
2019-05-02T09:15:35.127Z,16.80
2019-05-02T09:20:38.969Z,17.00
2019-05-02T09:23:32.389Z,17.20
2019-05-02T09:26:17.785Z,17.30
2019-05-02T09:29:06.356Z,17.30
2019-05-02T09:31:40.878Z,17.30
2019-05-02T09:34:26.820Z,17.50
2019-05-02T09:37:15.397Z,17.60
2019-05-02T09:40:06.992Z,17.70
2019-05-02T09:42:35.251Z,17.80
2019-05-02T09:45:33.374Z,17.60
2019-05-02T09:48:24.865Z,17.30
2019-05-02T09:51:12.568Z,17.60
2019-05-02T09:54:02.728Z,17.50
2019-05-02T09:56:32.401Z,17.40
2019-05-02T10:02:29.521Z,17.30
2019-05-02T10:05:18.143Z,17.30
2019-05-02T10:08:08.102Z,17.30
2019-05-02T10:10:44.157Z,17.50
2019-05-02T10:13:22.592Z,17.80
2019-05-02T10:16:03.042Z,17.80
2019-05-02T10:18:33.095Z,17.70
2019-05-02T10:21:22.793Z,17.40
2019-05-02T10:24:12.680Z,17.20
2019-05-02T10:27:08.226Z,17.20
2019-05-02T10:29:33.364Z,17.50
2019-05-02T10:32:22.687Z,17.80
2019-05-02T10:38:09.412Z,17.40
2019-05-02T10:40:38.549Z,17.50
2019-05-02T10:43:27.080Z,17.70
2019-05-02T10:46:37.709Z,17.70
2019-05-02T10:49:32.094Z,17.70
2019-05-02T10:52:21.606Z,17.80
2019-05-02T10:55:12.763Z,18.30
2019-05-02T10:57:42.170Z,18.10
2019-05-02T11:00:49.540Z,17.80
2019-05-02T11:06:37.138Z,17.40
2019-05-02T11:09:26.532Z,17.60
2019-05-02T11:12:09.368Z,17.80
2019-05-02T11:17:42.229Z,17.80
2019-05-02T11:20:31.866Z,18.10
2019-05-02T11:23:02.209Z,18.20
2019-05-02T11:28:41.611Z,18.30
2019-05-02T11:31:32.286Z,18.20
2019-05-02T11:34:22.037Z,18.10
2019-05-02T11:37:12.121Z,18.00
2019-05-02T11:43:08.443Z,18.20
2019-05-02T11:45:37.912Z,18.30
2019-05-02T11:48:31.970Z,18.80
2019-05-02T11:51:22.520Z,19.30
2019-05-02T11:54:12.733Z,19.30
2019-05-02T11:57:02.203Z,19.30
2019-05-02T11:59:32.118Z,19.70
2019-05-02T12:02:41.264Z,19.20
2019-05-02T12:05:48.634Z,19.00
2019-05-02T12:08:39.435Z,19.00
2019-05-02T12:11:27.390Z,19.30
2019-05-02T12:14:08.985Z,19.70
2019-05-02T12:16:38.520Z,19.30
2019-05-02T12:19:27.039Z,19.10
2019-05-02T12:22:16.913Z,19.30
2019-05-02T12:25:06.241Z,19.50
2019-05-02T12:27:35.742Z,20.10
2019-05-02T12:30:24.252Z,19.70
2019-05-02T12:32:53.744Z,19.50
2019-05-02T12:35:23.303Z,19.10
2019-05-02T12:38:12.255Z,18.80
2019-05-02T12:41:02.725Z,18.90
2019-05-02T12:43:33.186Z,19.00
2019-05-02T12:46:22.267Z,19.70
2019-05-02T12:49:22.586Z,20.00
2019-05-02T12:51:42.859Z,20.20
2019-05-02T12:54:32.604Z,20.00
2019-05-02T12:57:21.997Z,20.20
2019-05-02T13:00:31.983Z,20.20
2019-05-02T13:03:43.639Z,19.60
2019-05-02T13:06:32.784Z,19.20
2019-05-02T13:09:23.407Z,18.90
2019-05-02T13:15:16.648Z,19.50
2019-05-02T13:17:57.374Z,19.90
2019-05-02T13:20:29.417Z,19.90
2019-05-02T13:23:37.318Z,20.30
2019-05-02T13:26:27.303Z,20.60
2019-05-02T13:29:15.917Z,20.40
2019-05-02T13:32:23.440Z,19.90
2019-05-02T13:35:13.245Z,20.10
2019-05-02T13:41:02.869Z,19.20
2019-05-02T13:46:27.394Z,18.80
2019-05-02T13:49:16.003Z,18.80
2019-05-02T13:52:04.553Z,18.90
2019-05-02T13:57:48.531Z,19.30
2019-05-02T14:03:19.397Z,19.80
2019-05-02T14:06:07.900Z,19.40
2019-05-02T14:12:15.033Z,19.80
2019-05-02T14:14:56.496Z,20.30
2019-05-02T14:17:26.108Z,20.60
2019-05-02T14:20:37.402Z,20.40
2019-05-02T14:26:34.224Z,21.30
2019-05-02T14:29:22.788Z,21.50
2019-05-02T14:32:21.315Z,20.40
2019-05-02T14:35:26.417Z,20.20
2019-05-02T14:38:13.144Z,20.50
2019-05-02T14:41:21.788Z,21.00
2019-05-02T14:44:11.974Z,20.90
2019-05-02T14:47:02.183Z,20.70
2019-05-02T14:49:52.173Z,20.60
2019-05-02T14:52:22.203Z,19.90
2019-05-02T14:55:12.199Z,19.60
2019-05-02T14:58:02.230Z,19.50
2019-05-02T15:03:45.968Z,19.50
2019-05-02T15:06:15.640Z,19.60
2019-05-02T15:09:26.790Z,19.10
2019-05-02T15:11:58.545Z,19.00
2019-05-02T15:14:29.540Z,19.20
2019-05-02T15:16:59.203Z,19.70
2019-05-02T15:19:28.693Z,20.30
2019-05-02T15:21:58.149Z,20.80
2019-05-02T15:24:32.068Z,21.00
2019-05-02T15:27:05.561Z,20.90
2019-05-02T15:29:31.939Z,20.20
2019-05-02T15:32:18.612Z,20.00
2019-05-02T15:35:02.319Z,20.40
2019-05-02T15:37:32.150Z,20.80
2019-05-02T15:42:34.808Z,20.20
2019-05-02T15:45:05.813Z,20.10
2019-05-02T15:47:36.995Z,19.60
2019-05-02T15:50:07.056Z,19.80
2019-05-02T15:52:38.300Z,20.20
2019-05-02T15:55:07.963Z,20.20
2019-05-02T15:57:43.076Z,20.10
2019-05-02T16:00:16.791Z,19.90
2019-05-02T16:02:42.430Z,19.60
2019-05-02T16:05:12.477Z,19.50
2019-05-02T16:07:44.959Z,19.70
2019-05-02T16:10:14.093Z,19.80
2019-05-02T16:12:45.127Z,20.60
2019-05-02T16:15:21.259Z,20.90
2019-05-02T16:17:46.588Z,20.90
2019-05-02T16:20:47.386Z,20.50
2019-05-02T16:23:19.045Z,20.80
2019-05-02T16:25:46.420Z,21.30
2019-05-02T16:28:15.914Z,21.00
2019-05-02T16:30:47.624Z,20.20
2019-05-02T16:33:20.497Z,19.50
2019-05-02T16:35:52.927Z,19.30
2019-05-02T16:38:19.550Z,19.40
2019-05-02T16:40:49.046Z,20.00
2019-05-02T16:43:18.502Z,20.90
2019-05-02T16:45:48.044Z,20.90
2019-05-02T16:48:17.508Z,21.20
2019-05-02T16:50:46.991Z,21.00
2019-05-02T16:53:17.294Z,21.00
2019-05-02T16:55:47.596Z,20.60
2019-05-02T16:58:17.053Z,20.20
2019-05-02T17:00:48.602Z,19.80
2019-05-02T17:03:24.722Z,19.40
2019-05-02T17:05:49.566Z,19.20
2019-05-02T17:08:41.877Z,19.10
2019-05-02T17:11:34.181Z,19.20
2019-05-02T17:14:02.399Z,19.30
2019-05-02T17:16:31.929Z,19.40
2019-05-02T17:19:01.731Z,18.80
2019-05-02T17:21:33.727Z,18.20
2019-05-02T17:24:02.648Z,17.90
2019-05-02T17:26:32.135Z,17.60
2019-05-02T17:29:02.531Z,17.40
2019-05-02T17:31:32.378Z,17.30
2019-05-02T17:34:02.772Z,17.10
2019-05-02T17:36:32.579Z,17.00
2019-05-02T17:39:06.389Z,16.90
2019-05-02T17:41:37.113Z,16.70
2019-05-02T17:44:04.577Z,16.70
2019-05-02T17:46:34.038Z,16.60
2019-05-02T17:49:03.525Z,16.50
2019-05-02T17:51:51.969Z,16.50
2019-05-02T17:54:22.781Z,16.40
2019-05-02T17:56:57.553Z,16.30
2019-05-02T17:59:28.174Z,16.30
2019-05-02T18:01:54.863Z,16.20
2019-05-02T18:04:24.333Z,16.10
2019-05-02T18:06:55.108Z,16.10
2019-05-02T18:09:26.252Z,16.00
2019-05-02T18:11:56.287Z,15.90
2019-05-02T18:14:25.964Z,15.80
2019-05-02T18:16:55.797Z,15.70
2019-05-02T18:19:25.448Z,15.60
2019-05-02T18:21:58.287Z,15.50
2019-05-02T18:24:26.501Z,15.50
2019-05-02T18:26:56.175Z,15.40
2019-05-02T18:29:25.820Z,15.40
2019-05-02T18:31:55.512Z,15.30
2019-05-02T18:34:25.485Z,15.20
2019-05-02T18:36:57.532Z,15.10
2019-05-02T18:39:26.541Z,15.20
2019-05-02T18:41:56.324Z,15.10
2019-05-02T18:44:25.993Z,15.10
2019-05-02T18:46:57.793Z,15.10
2019-05-02T18:49:27.068Z,15.00
2019-05-02T18:51:57.452Z,15.00
2019-05-02T18:54:27.195Z,15.00
2019-05-02T18:56:56.916Z,14.90
2019-05-02T18:59:27.225Z,14.80
2019-05-02T19:01:59.628Z,14.90
2019-05-02T19:04:35.281Z,14.80
2019-05-02T19:06:59.955Z,14.80
2019-05-02T19:09:30.496Z,14.70
2019-05-02T19:12:05.868Z,14.70
2019-05-02T19:14:32.819Z,14.60
2019-05-02T19:17:05.477Z,14.60
2019-05-02T19:19:36.814Z,14.60
2019-05-02T19:22:07.466Z,14.60
2019-05-02T19:24:37.107Z,14.60
2019-05-02T19:27:07.264Z,14.50
2019-05-02T19:29:36.998Z,14.50
2019-05-02T19:32:09.457Z,14.50
2019-05-02T19:34:39.206Z,14.50
2019-05-02T19:37:08.910Z,14.50
2019-05-02T19:39:44.785Z,14.40
2019-05-02T19:42:12.324Z,14.40
2019-05-02T19:44:42.215Z,14.30
2019-05-02T19:47:15.637Z,14.30
2019-05-02T19:49:47.161Z,14.30
2019-05-02T19:52:14.657Z,14.20
2019-05-02T19:54:44.409Z,14.20
2019-05-02T19:57:17.214Z,14.20
2019-05-02T19:59:44.978Z,14.00
2019-05-02T20:02:14.481Z,13.90
2019-05-02T20:04:44.343Z,13.80
2019-05-02T20:07:13.812Z,13.80
2019-05-02T20:09:47.136Z,13.80
2019-05-02T20:12:15.706Z,13.70
2019-05-02T20:14:47.515Z,13.70
2019-05-02T20:17:20.353Z,13.60
2019-05-02T20:19:52.754Z,13.60
2019-05-02T20:22:22.406Z,13.50
2019-05-02T20:25:01.210Z,13.40
2019-05-02T20:27:29.765Z,13.30
2019-05-02T20:29:59.244Z,13.20
2019-05-02T20:32:28.702Z,13.10
2019-05-02T20:34:58.159Z,13.10
2019-05-02T20:37:27.675Z,13.10
2019-05-02T20:39:57.144Z,13.10
2019-05-02T20:42:26.603Z,13.00
2019-05-02T20:44:56.092Z,13.00
2019-05-02T20:47:26.790Z,13.00
2019-05-02T20:49:56.272Z,12.90
2019-05-02T20:52:26.861Z,13.00
2019-05-02T20:54:56.308Z,12.90
2019-05-02T20:57:25.767Z,12.80
2019-05-02T20:59:55.241Z,12.70
2019-05-02T21:02:24.735Z,12.70
2019-05-02T21:04:54.206Z,12.60
2019-05-02T21:07:44.075Z,12.60
2019-05-02T21:10:21.724Z,12.50
2019-05-02T21:13:12.571Z,12.40
2019-05-02T21:16:01.793Z,12.40
2019-05-02T21:18:50.424Z,12.40
2019-05-02T21:24:42.328Z,12.20
2019-05-02T21:27:15.335Z,12.30
2019-05-02T21:30:04.755Z,12.30
2019-05-02T21:32:53.257Z,12.30
2019-05-02T21:35:42.439Z,12.20
2019-05-02T21:38:12.893Z,12.20
2019-05-02T21:41:01.512Z,12.10
2019-05-02T21:43:51.705Z,12.10
2019-05-02T21:46:39.277Z,12.10
2019-05-02T21:49:08.829Z,12.10
2019-05-02T21:52:16.253Z,12.10
2019-05-02T21:55:24.039Z,12.10
2019-05-02T21:58:12.513Z,12.10
2019-05-02T22:01:06.342Z,12.10
2019-05-02T22:03:54.837Z,12.00
2019-05-02T22:09:58.205Z,12.00
2019-05-02T22:12:46.720Z,12.00
2019-05-02T22:15:16.283Z,12.00
2019-05-02T22:18:04.904Z,11.90
2019-05-02T22:20:53.435Z,11.90
2019-05-02T22:23:34.593Z,11.90
2019-05-02T22:26:04.115Z,11.90
2019-05-02T22:28:53.739Z,11.80
2019-05-02T22:31:43.161Z,11.80
2019-05-02T22:34:13.989Z,11.80
2019-05-02T22:43:04.648Z,11.80
2019-05-02T22:45:53.260Z,11.80
2019-05-02T22:48:42.324Z,11.70
2019-05-02T22:51:12.967Z,11.60
2019-05-02T22:54:02.918Z,11.60
2019-05-02T22:56:52.099Z,11.60
2019-05-02T22:59:42.298Z,11.50
2019-05-02T23:02:13.046Z,11.40
2019-05-02T23:05:02.089Z,11.20
2019-05-02T23:07:31.575Z,11.10
2019-05-02T23:10:02.161Z,10.90
2019-05-02T23:12:51.755Z,10.90
2019-05-02T23:15:42.647Z,10.90
2019-05-02T23:18:12.246Z,10.90
2019-05-02T23:21:02.107Z,10.90
2019-05-02T23:23:52.363Z,10.90
2019-05-02T23:29:17.651Z,10.90
2019-05-02T23:32:06.202Z,11.00
2019-05-02T23:34:54.732Z,11.00
2019-05-02T23:37:43.330Z,11.00
2019-05-02T23:40:12.898Z,11.00
2019-05-02T23:43:01.909Z,11.00
2019-05-02T23:45:51.667Z,11.00
2019-05-02T23:48:22.118Z,11.00
2019-05-02T23:51:12.195Z,11.00
2019-05-02T23:54:02.069Z,11.00
2019-05-02T23:56:50.720Z,11.00
2019-05-02T23:59:39.256Z,11.00
